createdAt,value
2022-11-29T00:01:10.987Z,69.50
2022-11-29T00:03:37.649Z,104.50
2022-11-29T00:06:09.067Z,95.53
2022-11-29T00:08:36.380Z,93.15
2022-11-29T00:11:06.662Z,100.47
2022-11-29T00:13:33.419Z,112.03
2022-11-29T00:16:05.729Z,152.68
2022-11-29T00:18:32.812Z,88.40
2022-11-29T00:20:59.973Z,177.43
2022-11-29T00:23:26.707Z,166.25
2022-11-29T00:25:53.264Z,112.38
2022-11-29T00:28:19.905Z,122.70
2022-11-29T00:30:47.293Z,176.63
2022-11-29T00:33:13.914Z,110.93
2022-11-29T00:35:40.397Z,171.70
2022-11-29T00:38:07.117Z,86.38
2022-11-29T00:40:33.532Z,103.68
2022-11-29T00:43:00.024Z,135.82
2022-11-29T00:45:26.511Z,169.77
2022-11-29T00:47:53.247Z,105.10
2022-11-29T00:50:19.842Z,194.60
2022-11-29T00:52:46.347Z,91.82
2022-11-29T00:55:12.809Z,90.40
2022-11-29T00:57:39.327Z,109.20
2022-11-29T01:00:06.551Z,288.80
2022-11-29T01:02:33.117Z,94.47
2022-11-29T01:04:59.548Z,130.77
2022-11-29T01:07:26.149Z,177.25
2022-11-29T01:09:52.722Z,116.93
2022-11-29T01:12:19.151Z,82.70
2022-11-29T01:14:45.655Z,91.28
2022-11-29T01:17:12.452Z,98.28
2022-11-29T01:19:38.928Z,85.00
2022-11-29T01:22:05.432Z,86.13
2022-11-29T01:24:32.012Z,171.70
2022-11-29T01:26:58.607Z,209.02
2022-11-29T01:29:25.074Z,73.00
2022-11-29T01:31:51.602Z,71.18
2022-11-29T01:34:18.058Z,77.07
2022-11-29T01:36:44.705Z,58.80
2022-11-29T01:39:11.215Z,84.15
2022-11-29T01:41:37.959Z,71.53
2022-11-29T01:44:13.547Z,72.95
2022-11-29T01:46:44.440Z,68.18
2022-11-29T01:49:19.319Z,66.55
2022-11-29T01:51:52.798Z,72.13
2022-11-29T01:54:21.097Z,65.22
2022-11-29T01:56:50.395Z,55.88
2022-11-29T01:59:20.354Z,69.50
2022-11-29T02:01:46.782Z,57.28
2022-11-29T02:04:15.014Z,64.00
2022-11-29T02:06:43.109Z,54.78
2022-11-29T02:09:22.087Z,69.78
2022-11-29T02:12:13.016Z,67.93
2022-11-29T02:14:54.649Z,59.45
2022-11-29T02:17:29.028Z,56.38
2022-11-29T02:20:33.039Z,58.20
2022-11-29T02:23:14.091Z,51.58
2022-11-29T02:26:07.721Z,58.90
2022-11-29T02:28:54.362Z,51.58
2022-11-29T02:31:48.920Z,48.50
2022-11-29T02:34:28.585Z,52.03
2022-11-29T02:37:19.230Z,59.78
2022-11-29T02:40:16.109Z,52.03
2022-11-29T02:42:56.093Z,52.45
2022-11-29T02:45:43.863Z,48.08
2022-11-29T02:48:22.455Z,50.17
2022-11-29T02:50:57.947Z,50.15
2022-11-29T02:53:50.038Z,46.30
2022-11-29T02:56:37.765Z,49.28
2022-11-29T02:59:28.613Z,47.35
2022-11-29T03:02:07.857Z,55.20
2022-11-29T03:04:47.546Z,51.38
2022-11-29T03:07:27.123Z,48.08
2022-11-29T03:10:02.761Z,49.70
2022-11-29T03:12:40.290Z,56.67
2022-11-29T03:15:09.545Z,51.20
2022-11-29T03:17:48.263Z,47.10
2022-11-29T03:20:29.061Z,56.95
2022-11-29T03:23:14.827Z,73.55
2022-11-29T03:25:54.830Z,56.33
2022-11-29T03:28:33.640Z,58.58
2022-11-29T03:31:14.153Z,54.08
2022-11-29T03:33:52.366Z,61.83
2022-11-29T03:36:29.571Z,60.00
2022-11-29T03:41:31.077Z,58.83
2022-11-29T03:44:05.340Z,49.38
2022-11-29T03:46:42.436Z,63.28
2022-11-29T03:52:01.087Z,70.13
2022-11-29T03:54:37.923Z,81.05
2022-11-29T03:57:04.771Z,57.17
2022-11-29T03:59:31.205Z,56.60
2022-11-29T04:02:21.175Z,73.57
2022-11-29T04:05:34.178Z,83.57
2022-11-29T04:08:15.670Z,82.15
2022-11-29T04:11:10.010Z,81.65
2022-11-29T04:14:14.071Z,87.93
2022-11-29T04:16:59.452Z,62.97
2022-11-29T04:19:46.780Z,70.85
2022-11-29T04:22:29.115Z,43.40
2022-11-29T04:25:26.522Z,56.13
2022-11-29T04:28:10.624Z,77.45
2022-11-29T04:30:56.698Z,51.17
2022-11-29T04:33:57.544Z,52.45
2022-11-29T04:36:33.206Z,61.38
2022-11-29T04:39:40.047Z,91.68
2022-11-29T04:42:29.359Z,86.22
2022-11-29T04:45:12.719Z,67.35
2022-11-29T04:48:10.079Z,62.88
2022-11-29T04:50:52.208Z,61.90
2022-11-29T04:53:38.460Z,74.75
2022-11-29T04:56:29.489Z,83.43
2022-11-29T04:59:11.060Z,73.38
2022-11-29T05:01:58.686Z,60.17
2022-11-29T05:04:46.993Z,77.55
2022-11-29T05:07:45.672Z,56.47
2022-11-29T05:10:34.035Z,61.63
2022-11-29T05:13:23.617Z,65.95
2022-11-29T05:16:19.289Z,61.78
2022-11-29T05:19:02.310Z,73.65
2022-11-29T05:22:06.904Z,60.40
2022-11-29T05:24:41.272Z,84.78
2022-11-29T05:27:15.996Z,58.97
2022-11-29T05:30:07.527Z,57.00
2022-11-29T05:32:47.624Z,62.70
2022-11-29T05:35:34.456Z,50.90
2022-11-29T05:38:31.104Z,64.10
2022-11-29T05:41:03.925Z,48.22
2022-11-29T05:43:38.605Z,50.15
2022-11-29T05:46:35.461Z,53.83
2022-11-29T05:49:18.097Z,68.38
2022-11-29T05:52:32.476Z,80.43
2022-11-29T05:55:16.340Z,80.00
2022-11-29T05:57:45.752Z,93.75
2022-11-29T06:00:14.742Z,90.60
2022-11-29T06:03:03.708Z,105.05
2022-11-29T06:05:32.722Z,117.88
2022-11-29T06:08:10.603Z,93.60
2022-11-29T06:10:40.222Z,59.53
2022-11-29T06:13:24.928Z,54.50
2022-11-29T06:16:28.900Z,33.20
2022-11-29T06:19:19.605Z,52.88
2022-11-29T06:21:52.454Z,47.10
2022-11-29T06:24:36.035Z,32.70
2022-11-29T06:27:11.402Z,40.13
2022-11-29T06:30:01.318Z,49.92
2022-11-29T06:32:34.339Z,38.60
2022-11-29T06:35:07.665Z,51.50
2022-11-29T06:37:50.513Z,55.13
2022-11-29T06:40:17.902Z,55.05
2022-11-29T06:42:44.806Z,79.00
2022-11-29T06:45:13.877Z,46.42
2022-11-29T06:47:49.325Z,72.70
2022-11-29T06:50:38.274Z,35.42
2022-11-29T06:53:25.099Z,71.90
2022-11-29T06:56:03.617Z,47.42
2022-11-29T06:58:35.843Z,46.42
2022-11-29T07:01:15.728Z,39.40
2022-11-29T07:03:53.467Z,37.65
2022-11-29T07:06:27.205Z,33.22
2022-11-29T07:08:59.357Z,43.55
2022-11-29T07:11:26.470Z,38.65
2022-11-29T07:13:53.190Z,32.63
2022-11-29T07:16:35.378Z,45.25
2022-11-29T07:19:27.381Z,33.30
2022-11-29T07:22:25.742Z,32.50
2022-11-29T07:25:13.458Z,38.55
2022-11-29T07:27:57.832Z,39.28
2022-11-29T07:30:53.404Z,36.60
2022-11-29T07:33:48.398Z,43.22
2022-11-29T07:36:29.268Z,41.53
2022-11-29T07:39:24.096Z,37.50
2022-11-29T07:42:18.101Z,48.80
2022-11-29T07:45:02.806Z,51.13
2022-11-29T07:47:35.316Z,45.33
2022-11-29T07:50:02.402Z,33.13
2022-11-29T07:52:28.918Z,46.80
2022-11-29T07:54:55.917Z,43.08
2022-11-29T07:57:22.694Z,36.33
2022-11-29T07:59:49.191Z,33.60
2022-11-29T08:02:27.034Z,30.35
2022-11-29T08:04:53.517Z,27.73
2022-11-29T08:07:19.985Z,27.73
2022-11-29T08:09:48.155Z,31.08
2022-11-29T08:12:15.414Z,26.85
2022-11-29T08:14:41.961Z,34.70
2022-11-29T08:17:08.629Z,28.02
2022-11-29T08:19:34.999Z,25.27
2022-11-29T08:22:02.015Z,29.88
2022-11-29T08:24:28.582Z,32.10
2022-11-29T08:26:55.175Z,30.13
2022-11-29T08:29:21.597Z,32.40
2022-11-29T08:31:54.172Z,31.75
2022-11-29T08:34:22.283Z,32.28
2022-11-29T08:36:49.890Z,28.60
2022-11-29T08:39:16.599Z,32.17
2022-11-29T08:41:43.375Z,27.13
2022-11-29T08:44:09.896Z,29.38
2022-11-29T08:46:54.876Z,37.05
2022-11-29T08:49:21.246Z,25.65
2022-11-29T08:51:47.681Z,26.10
2022-11-29T08:54:14.120Z,34.58
2022-11-29T08:59:28.241Z,38.38
2022-11-29T09:01:54.826Z,27.25
2022-11-29T09:04:21.290Z,28.15
2022-11-29T09:06:49.593Z,22.58
2022-11-29T09:09:16.908Z,26.05
2022-11-29T09:11:46.998Z,28.50
2022-11-29T09:14:17.392Z,31.73
2022-11-29T09:16:43.933Z,23.25
2022-11-29T09:19:10.625Z,25.75
2022-11-29T09:21:37.112Z,24.40
2022-11-29T09:24:06.409Z,28.27
2022-11-29T09:26:35.464Z,28.70
2022-11-29T09:29:04.435Z,24.40
2022-11-29T09:31:32.195Z,20.95
2022-11-29T09:33:58.945Z,21.42
2022-11-29T09:36:28.959Z,17.00
2022-11-29T09:38:56.127Z,19.30
2022-11-29T09:41:53.321Z,20.60
2022-11-29T09:44:45.942Z,24.58
2022-11-29T09:47:37.670Z,25.90
2022-11-29T09:50:30.740Z,22.33
2022-11-29T09:53:26.037Z,21.90
2022-11-29T09:56:25.961Z,19.13
2022-11-29T09:59:00.503Z,18.67
2022-11-29T10:01:32.365Z,22.00
2022-11-29T10:04:05.320Z,20.75
2022-11-29T10:06:39.549Z,21.98
2022-11-29T10:09:25.385Z,20.80
2022-11-29T10:12:08.754Z,21.75
2022-11-29T10:14:48.125Z,21.33
2022-11-29T10:17:44.717Z,24.42
2022-11-29T10:20:17.840Z,19.75
2022-11-29T10:22:55.997Z,22.10
2022-11-29T10:25:32.072Z,22.85
2022-11-29T10:27:58.816Z,19.90
2022-11-29T10:30:25.680Z,19.90
2022-11-29T10:32:57.761Z,17.75
2022-11-29T10:35:24.780Z,19.30
2022-11-29T10:38:29.308Z,19.23
2022-11-29T10:40:49.302Z,20.48
2022-11-29T10:43:15.752Z,15.30
2022-11-29T10:45:55.959Z,18.40
2022-11-29T10:48:27.444Z,19.52
2022-11-29T10:50:54.239Z,16.10
2022-11-29T10:53:31.526Z,17.10
2022-11-29T10:56:16.581Z,19.88
2022-11-29T10:59:08.999Z,25.58
2022-11-29T11:01:42.823Z,21.63
2022-11-29T11:04:17.040Z,22.08
2022-11-29T11:06:51.387Z,20.55
2022-11-29T11:09:47.124Z,23.42
2022-11-29T11:12:13.477Z,22.80
2022-11-29T11:14:40.847Z,19.95
2022-11-29T11:17:30.090Z,19.17
2022-11-29T11:20:01.013Z,19.45
2022-11-29T11:25:04.436Z,22.67
2022-11-29T11:27:37.214Z,16.73
2022-11-29T11:30:06.720Z,21.52
2022-11-29T11:32:33.256Z,21.27
2022-11-29T11:35:01.791Z,19.52
2022-11-29T11:37:31.168Z,21.58
2022-11-29T11:40:01.035Z,22.23
2022-11-29T11:42:37.884Z,20.02
2022-11-29T11:45:19.715Z,18.63
2022-11-29T11:47:52.674Z,20.02
2022-11-29T11:50:29.919Z,21.85
2022-11-29T11:52:59.894Z,19.20
2022-11-29T11:55:37.273Z,17.75
2022-11-29T11:58:13.158Z,20.55
2022-11-29T12:01:02.963Z,18.50
2022-11-29T12:03:38.215Z,19.92
2022-11-29T12:06:15.240Z,24.48
2022-11-29T12:08:43.113Z,21.23
2022-11-29T12:11:14.706Z,23.95
2022-11-29T12:13:47.846Z,22.33
2022-11-29T12:16:27.450Z,20.02
2022-11-29T12:19:24.581Z,20.23
2022-11-29T12:21:59.648Z,21.20
2022-11-29T12:24:32.785Z,21.17
2022-11-29T12:27:04.449Z,30.55
2022-11-29T12:29:33.821Z,19.85
2022-11-29T12:32:03.369Z,22.70
2022-11-29T12:34:49.855Z,20.83
2022-11-29T12:37:39.466Z,21.48
2022-11-29T12:40:12.433Z,20.20
2022-11-29T12:43:02.322Z,19.08
2022-11-29T12:45:41.020Z,23.88
2022-11-29T12:48:26.888Z,20.55
2022-11-29T12:51:19.775Z,24.77
2022-11-29T12:53:58.405Z,18.20
2022-11-29T12:56:36.959Z,16.38
2022-11-29T12:59:30.289Z,18.60
2022-11-29T13:02:20.495Z,16.55
2022-11-29T13:05:11.685Z,18.83
2022-11-29T13:08:06.658Z,17.48
2022-11-29T13:11:07.873Z,19.00
2022-11-29T13:13:43.934Z,19.50
2022-11-29T13:16:30.843Z,24.08
2022-11-29T13:19:20.764Z,18.75
2022-11-29T13:22:21.150Z,18.67
2022-11-29T13:24:53.325Z,19.35
2022-11-29T13:27:28.622Z,19.10
2022-11-29T13:29:56.148Z,16.63
2022-11-29T13:32:36.128Z,15.70
2022-11-29T13:35:27.458Z,18.02
2022-11-29T13:38:03.283Z,19.17
2022-11-29T13:40:50.830Z,20.83
2022-11-29T13:43:25.385Z,22.75
2022-11-29T13:46:13.783Z,23.30
2022-11-29T13:48:47.710Z,21.13
2022-11-29T13:51:40.516Z,19.27
2022-11-29T13:54:34.430Z,18.35
2022-11-29T13:57:06.536Z,19.17
2022-11-29T13:59:37.061Z,16.15
2022-11-29T14:02:21.931Z,18.20
2022-11-29T14:04:48.568Z,18.75
2022-11-29T14:07:19.596Z,18.85
2022-11-29T14:10:03.290Z,19.95
2022-11-29T14:12:41.437Z,19.33
2022-11-29T14:15:10.931Z,17.42
2022-11-29T14:17:48.953Z,24.40
2022-11-29T14:20:33.651Z,17.00
2022-11-29T14:23:06.048Z,16.60
2022-11-29T14:25:53.441Z,16.85
2022-11-29T14:28:23.016Z,16.58
2022-11-29T14:30:53.980Z,20.77
2022-11-29T14:33:48.354Z,17.98
2022-11-29T14:36:14.788Z,17.30
2022-11-29T14:39:02.063Z,19.45
2022-11-29T14:44:15.880Z,17.55
2022-11-29T14:46:42.824Z,15.88
2022-11-29T14:49:21.226Z,16.33
2022-11-29T14:52:08.496Z,16.90
2022-11-29T14:54:53.812Z,18.20
2022-11-29T14:57:58.669Z,19.48
2022-11-29T15:00:26.760Z,17.20
2022-11-29T15:03:00.959Z,14.73
2022-11-29T15:05:33.154Z,19.02
2022-11-29T15:08:14.942Z,20.58
2022-11-29T15:10:47.713Z,16.92
2022-11-29T15:13:18.431Z,16.23
2022-11-29T15:16:09.203Z,21.40
2022-11-29T15:18:54.085Z,20.17
2022-11-29T15:21:30.917Z,21.08
2022-11-29T15:24:02.617Z,19.83
2022-11-29T15:26:29.393Z,20.98
2022-11-29T15:29:15.844Z,19.23
2022-11-29T15:31:43.291Z,17.05
2022-11-29T15:34:29.484Z,16.83
2022-11-29T15:36:56.047Z,19.42
2022-11-29T15:39:35.603Z,19.42
2022-11-29T15:42:10.949Z,23.67
2022-11-29T15:44:37.428Z,22.58
2022-11-29T15:47:26.487Z,22.17
2022-11-29T15:49:54.295Z,30.17
2022-11-29T15:52:34.339Z,24.98
2022-11-29T15:55:04.751Z,27.20
2022-11-29T15:57:46.029Z,24.50
2022-11-29T16:00:20.189Z,24.63
2022-11-29T16:02:52.264Z,25.63
2022-11-29T16:05:26.080Z,26.63
2022-11-29T16:07:57.524Z,23.90
2022-11-29T16:10:43.592Z,30.65
2022-11-29T16:13:57.909Z,23.35
2022-11-29T16:16:25.775Z,27.73
2022-11-29T16:18:52.373Z,26.58
2022-11-29T16:21:30.574Z,30.27
2022-11-29T16:23:58.080Z,27.98
2022-11-29T16:26:29.345Z,27.25
2022-11-29T16:28:57.878Z,30.20
2022-11-29T16:31:32.577Z,27.55
2022-11-29T16:34:07.898Z,29.30
2022-11-29T16:36:34.631Z,27.08
2022-11-29T16:39:20.450Z,28.35
2022-11-29T16:42:05.140Z,28.63
2022-11-29T16:44:40.512Z,34.55
2022-11-29T16:47:23.819Z,31.63
2022-11-29T16:50:02.455Z,32.50
2022-11-29T16:52:31.120Z,27.70
2022-11-29T16:54:57.867Z,27.05
2022-11-29T16:57:25.404Z,34.47
2022-11-29T16:59:52.017Z,31.27
2022-11-29T17:02:18.743Z,30.63
2022-11-29T17:04:45.540Z,30.08
2022-11-29T17:07:22.838Z,31.65
2022-11-29T17:09:49.269Z,32.10
2022-11-29T17:12:15.702Z,33.65
2022-11-29T17:14:42.590Z,27.15
2022-11-29T17:17:14.359Z,28.52
2022-11-29T17:19:40.776Z,25.50
2022-11-29T17:22:07.213Z,30.80
2022-11-29T17:24:33.665Z,30.00
2022-11-29T17:27:00.301Z,30.48
2022-11-29T17:29:26.746Z,31.52
2022-11-29T17:31:53.457Z,26.52
2022-11-29T17:34:19.973Z,27.73
2022-11-29T17:36:46.831Z,27.13
2022-11-29T17:39:15.520Z,26.35
2022-11-29T17:41:42.024Z,26.52
2022-11-29T17:44:08.506Z,25.80
2022-11-29T17:46:36.612Z,30.48
2022-11-29T17:49:06.364Z,26.77
2022-11-29T17:54:21.551Z,26.83
2022-11-29T17:56:48.295Z,28.30
2022-11-29T17:59:14.711Z,28.55
2022-11-29T18:01:41.235Z,30.40
2022-11-29T18:04:08.307Z,26.95
2022-11-29T18:06:37.521Z,28.75
2022-11-29T18:09:05.523Z,26.10
2022-11-29T18:11:45.237Z,27.52
2022-11-29T18:14:15.902Z,29.55
2022-11-29T18:16:42.958Z,28.58
2022-11-29T18:19:13.699Z,29.90
2022-11-29T18:21:40.251Z,29.05
2022-11-29T18:24:07.995Z,30.35
2022-11-29T18:26:36.226Z,32.78
2022-11-29T18:29:03.614Z,28.58
2022-11-29T18:31:32.735Z,30.80
2022-11-29T18:34:01.106Z,29.90
2022-11-29T18:36:35.774Z,33.38
2022-11-29T18:39:11.479Z,29.20
2022-11-29T18:41:38.136Z,27.33
2022-11-29T18:44:07.443Z,34.72
2022-11-29T18:46:36.541Z,28.42
2022-11-29T18:49:05.647Z,24.13
2022-11-29T18:51:32.826Z,22.90
2022-11-29T18:53:59.568Z,22.17
2022-11-29T18:56:28.217Z,21.27
2022-11-29T18:58:58.910Z,21.00
2022-11-29T19:01:27.773Z,19.33
2022-11-29T19:03:56.607Z,18.05
2022-11-29T19:06:27.955Z,19.02
2022-11-29T19:08:54.927Z,24.05
2022-11-29T19:11:23.740Z,20.67
2022-11-29T19:14:01.470Z,22.85
2022-11-29T19:16:30.057Z,20.85
2022-11-29T19:18:58.452Z,24.00
2022-11-29T19:21:26.309Z,21.30
2022-11-29T19:23:58.637Z,23.02
2022-11-29T19:26:28.271Z,20.27
2022-11-29T19:28:54.873Z,18.58
2022-11-29T19:31:25.059Z,19.92
2022-11-29T19:33:52.657Z,18.73
2022-11-29T19:36:30.411Z,21.38
2022-11-29T19:39:01.290Z,22.92
2022-11-29T19:44:04.397Z,18.48
2022-11-29T19:46:33.919Z,17.25
2022-11-29T19:49:01.722Z,19.23
2022-11-29T19:51:29.657Z,16.17
2022-11-29T19:53:59.279Z,18.52
2022-11-29T19:56:26.605Z,18.60
2022-11-29T19:58:53.215Z,16.90
2022-11-29T20:01:25.719Z,18.55
2022-11-29T20:03:52.802Z,18.08
2022-11-29T20:06:19.880Z,18.20
2022-11-29T20:08:47.472Z,18.08
2022-11-29T20:11:16.941Z,16.48
2022-11-29T20:13:45.398Z,16.05
2022-11-29T20:16:14.716Z,17.15
2022-11-29T20:18:50.636Z,15.43
2022-11-29T20:21:20.009Z,16.02
2022-11-29T20:23:46.783Z,15.52
2022-11-29T20:26:19.213Z,17.80
2022-11-29T20:28:47.710Z,18.48
2022-11-29T20:31:17.197Z,14.32
2022-11-29T20:33:46.360Z,15.30
2022-11-29T20:36:31.647Z,14.02
2022-11-29T20:39:11.568Z,15.32
2022-11-29T20:41:53.020Z,17.58
2022-11-29T20:44:39.184Z,19.63
2022-11-29T20:47:16.149Z,15.60
2022-11-29T20:49:42.792Z,17.23
2022-11-29T20:52:21.369Z,14.98
2022-11-29T20:54:47.859Z,17.05
2022-11-29T20:57:14.544Z,14.48
2022-11-29T20:59:40.964Z,13.85
2022-11-29T21:02:07.434Z,16.73
2022-11-29T21:04:33.894Z,17.00
2022-11-29T21:07:00.389Z,14.43
2022-11-29T21:09:28.528Z,16.92
2022-11-29T21:11:55.323Z,15.63
2022-11-29T21:14:22.167Z,16.83
2022-11-29T21:16:49.012Z,18.17
2022-11-29T21:19:20.680Z,15.38
2022-11-29T21:22:10.526Z,18.60
2022-11-29T21:24:46.038Z,19.50
2022-11-29T21:27:23.517Z,15.63
2022-11-29T21:32:22.697Z,13.25
2022-11-29T21:34:49.393Z,12.57
2022-11-29T21:37:20.092Z,15.85
2022-11-29T21:39:48.824Z,14.40
2022-11-29T21:42:15.790Z,12.05
2022-11-29T21:44:42.203Z,19.02
2022-11-29T21:47:08.839Z,16.55
2022-11-29T21:49:35.580Z,16.98
2022-11-29T21:52:02.137Z,14.43
2022-11-29T21:54:31.952Z,14.52
2022-11-29T21:56:59.288Z,15.55
2022-11-29T21:59:25.751Z,17.15
2022-11-29T22:01:52.770Z,20.05
2022-11-29T22:04:19.691Z,15.30
2022-11-29T22:06:47.178Z,13.05
2022-11-29T22:09:13.802Z,14.52
2022-11-29T22:11:40.896Z,15.25
2022-11-29T22:14:24.307Z,23.13
2022-11-29T22:19:30.511Z,19.08
2022-11-29T22:21:59.544Z,19.92
2022-11-29T22:24:28.629Z,17.05
2022-11-29T22:26:56.239Z,20.83
2022-11-29T22:29:23.578Z,16.60
2022-11-29T22:31:54.677Z,19.77
2022-11-29T22:34:22.512Z,16.85
2022-11-29T22:36:49.199Z,17.70
2022-11-29T22:39:15.600Z,18.70
2022-11-29T22:41:42.675Z,18.70
2022-11-29T22:44:09.040Z,17.73
2022-11-29T22:46:35.860Z,18.00
2022-11-29T22:49:03.198Z,17.00
2022-11-29T22:51:32.285Z,19.55
2022-11-29T22:54:01.475Z,17.75
2022-11-29T22:56:30.804Z,20.63
2022-11-29T22:58:57.244Z,19.17
2022-11-29T23:01:27.091Z,22.65
2022-11-29T23:03:56.054Z,23.77
2022-11-29T23:06:25.404Z,24.48
2022-11-29T23:08:56.545Z,21.90
2022-11-29T23:11:27.796Z,19.73
2022-11-29T23:13:54.359Z,21.48
2022-11-29T23:16:23.840Z,21.38
2022-11-29T23:18:50.928Z,22.42
2022-11-29T23:21:21.393Z,22.67
2022-11-29T23:23:52.937Z,24.30
2022-11-29T23:26:31.052Z,21.98
2022-11-29T23:28:58.628Z,22.35
2022-11-29T23:31:25.344Z,23.13
2022-11-29T23:33:51.983Z,22.58
2022-11-29T23:36:18.934Z,21.52
2022-11-29T23:38:46.085Z,22.23
2022-11-29T23:41:14.160Z,25.33
2022-11-29T23:43:41.813Z,20.95
2022-11-29T23:46:12.202Z,26.65
2022-11-29T23:48:38.852Z,22.02
2022-11-29T23:51:05.349Z,23.90
2022-11-29T23:53:32.884Z,21.75
2022-11-29T23:56:02.170Z,23.33
2022-11-29T23:58:29.815Z,22.02
